createdAt,value
2023-01-19T00:01:24.410Z,1.73
2023-01-19T00:03:52.749Z,2.77
2023-01-19T00:06:20.747Z,2.57
2023-01-19T00:08:49.760Z,0.87
2023-01-19T00:11:19.174Z,3.70
2023-01-19T00:13:53.632Z,0.70
2023-01-19T00:16:23.287Z,0.10
2023-01-19T00:18:53.149Z,1.80
2023-01-19T00:21:21.619Z,1.33
2023-01-19T00:23:52.452Z,1.00
2023-01-19T00:26:22.152Z,2.47
2023-01-19T00:28:52.948Z,2.40
2023-01-19T00:31:21.804Z,0.60
2023-01-19T00:33:51.498Z,3.27
2023-01-19T00:36:19.653Z,2.53
2023-01-19T00:38:47.486Z,2.73
2023-01-19T00:41:15.224Z,3.77
2023-01-19T00:43:41.958Z,2.23
2023-01-19T00:46:11.315Z,3.97
2023-01-19T00:48:39.140Z,1.47
2023-01-19T00:51:07.001Z,4.27
2023-01-19T00:53:34.773Z,0.43
2023-01-19T00:56:02.486Z,1.23
2023-01-19T00:58:30.274Z,1.23
2023-01-19T01:01:03.579Z,6.80
2023-01-19T01:03:33.948Z,0.77
2023-01-19T01:06:01.869Z,0.90
2023-01-19T01:08:29.785Z,1.73
2023-01-19T01:10:58.087Z,5.40
2023-01-19T01:13:27.918Z,2.60
2023-01-19T01:15:58.042Z,1.03
2023-01-19T01:18:26.142Z,2.47
2023-01-19T01:21:02.215Z,3.57
2023-01-19T01:23:30.001Z,6.37
2023-01-19T01:25:57.731Z,1.23
2023-01-19T01:28:25.599Z,2.00
2023-01-19T01:30:54.585Z,1.40
2023-01-19T01:33:41.394Z,2.23
2023-01-19T01:36:12.603Z,2.23
2023-01-19T01:38:40.536Z,1.10
2023-01-19T01:41:08.814Z,0.10
2023-01-19T01:43:48.845Z,1.63
2023-01-19T01:46:18.023Z,0.60
2023-01-19T01:48:52.349Z,1.53
2023-01-19T01:51:26.394Z,0.73
2023-01-19T01:54:03.134Z,3.53
2023-01-19T01:56:35.094Z,3.80
2023-01-19T01:59:06.691Z,1.27
2023-01-19T02:01:53.009Z,1.23
2023-01-19T02:04:21.728Z,2.20
2023-01-19T02:07:09.235Z,2.73
2023-01-19T02:09:56.091Z,4.50
2023-01-19T02:12:42.026Z,2.13
2023-01-19T02:15:17.424Z,1.47
2023-01-19T02:17:45.459Z,1.83
2023-01-19T02:20:14.393Z,1.03
2023-01-19T02:22:49.506Z,1.13
2023-01-19T02:25:20.449Z,1.77
2023-01-19T02:27:48.625Z,0.83
2023-01-19T02:30:18.288Z,1.20
2023-01-19T02:32:46.423Z,0.10
2023-01-19T02:35:14.546Z,1.77
2023-01-19T02:37:45.474Z,1.20
2023-01-19T02:40:16.546Z,1.07
2023-01-19T02:42:49.625Z,1.70
2023-01-19T02:45:23.042Z,1.33
2023-01-19T02:47:53.765Z,1.60
2023-01-19T02:50:51.054Z,0.80
2023-01-19T02:53:34.131Z,1.10
2023-01-19T02:56:11.907Z,1.53
2023-01-19T02:58:49.258Z,3.93
2023-01-19T03:01:26.205Z,0.83
2023-01-19T03:03:57.672Z,1.10
2023-01-19T03:06:38.808Z,0.70
2023-01-19T03:09:14.028Z,2.67
2023-01-19T03:11:48.760Z,1.83
2023-01-19T03:14:24.257Z,5.23
2023-01-19T03:16:56.042Z,2.70
2023-01-19T03:19:27.243Z,7.27
2023-01-19T03:21:59.031Z,2.53
2023-01-19T03:24:32.474Z,3.40
2023-01-19T03:27:05.003Z,3.70
2023-01-19T03:29:36.186Z,5.50
2023-01-19T03:32:09.062Z,2.30
2023-01-19T03:34:39.320Z,3.13
2023-01-19T03:37:11.469Z,6.67
2023-01-19T03:39:39.305Z,1.33
2023-01-19T03:42:10.880Z,2.30
2023-01-19T03:44:41.335Z,5.43
2023-01-19T03:47:12.270Z,6.33
2023-01-19T03:49:43.016Z,5.17
2023-01-19T03:52:11.251Z,4.97
2023-01-19T03:54:39.119Z,5.23
2023-01-19T03:57:07.159Z,8.63
2023-01-19T03:59:35.263Z,8.93
2023-01-19T04:02:04.556Z,3.90
2023-01-19T04:04:32.325Z,6.10
2023-01-19T04:07:01.326Z,8.60
2023-01-19T04:09:29.345Z,5.57
2023-01-19T04:11:57.237Z,4.00
2023-01-19T04:14:24.998Z,7.40
2023-01-19T04:16:52.845Z,6.47
2023-01-19T04:19:21.923Z,11.03
2023-01-19T04:21:50.756Z,10.83
2023-01-19T04:24:18.677Z,4.50
2023-01-19T04:26:46.407Z,7.47
2023-01-19T04:29:14.394Z,4.93
2023-01-19T04:31:42.179Z,5.10
2023-01-19T04:34:10.215Z,5.73
2023-01-19T04:36:39.292Z,3.93
2023-01-19T04:39:08.921Z,3.70
2023-01-19T04:41:36.704Z,5.63
2023-01-19T04:44:05.984Z,6.00
2023-01-19T04:46:33.777Z,5.80
2023-01-19T04:49:01.585Z,6.20
2023-01-19T04:51:29.602Z,5.57
2023-01-19T04:53:58.819Z,3.83
2023-01-19T04:56:26.729Z,9.80
2023-01-19T04:58:54.514Z,9.73
2023-01-19T05:01:22.409Z,6.20
2023-01-19T05:03:50.203Z,6.57
2023-01-19T05:06:17.989Z,5.83
2023-01-19T05:08:45.823Z,5.63
2023-01-19T05:11:14.936Z,9.13
2023-01-19T05:13:42.710Z,7.00
2023-01-19T05:16:10.639Z,7.67
2023-01-19T05:18:38.568Z,8.67
2023-01-19T05:21:07.308Z,13.27
2023-01-19T05:23:35.572Z,7.90
2023-01-19T05:26:04.387Z,8.83
2023-01-19T05:28:37.451Z,7.80
2023-01-19T05:31:05.349Z,8.23
2023-01-19T05:33:33.199Z,7.77
2023-01-19T05:36:01.822Z,6.60
2023-01-19T05:38:35.385Z,6.07
2023-01-19T05:41:03.688Z,6.77
2023-01-19T05:43:32.852Z,8.07
2023-01-19T05:46:00.607Z,7.87
2023-01-19T05:48:28.459Z,3.10
2023-01-19T05:50:59.023Z,3.27
2023-01-19T05:53:27.174Z,8.60
2023-01-19T05:55:55.028Z,6.07
2023-01-19T05:58:22.827Z,7.10
2023-01-19T06:00:52.056Z,5.40
2023-01-19T06:03:19.861Z,7.17
2023-01-19T06:05:47.932Z,7.00
2023-01-19T06:08:15.756Z,5.70
2023-01-19T06:10:43.575Z,9.00
2023-01-19T06:13:11.349Z,5.10
2023-01-19T06:15:39.038Z,8.87
2023-01-19T06:18:08.227Z,9.70
2023-01-19T06:20:36.777Z,10.40
2023-01-19T06:23:04.965Z,7.77
2023-01-19T06:25:32.771Z,9.53
2023-01-19T06:28:00.505Z,6.60
2023-01-19T06:30:29.084Z,5.00
2023-01-19T06:32:56.832Z,7.80
2023-01-19T06:35:26.165Z,5.67
2023-01-19T06:37:54.075Z,6.20
2023-01-19T06:40:21.794Z,5.93
2023-01-19T06:42:49.930Z,6.53
2023-01-19T06:45:17.749Z,5.33
2023-01-19T06:47:48.430Z,4.47
2023-01-19T06:50:16.927Z,5.30
2023-01-19T06:52:46.047Z,8.27
2023-01-19T06:55:14.649Z,9.67
2023-01-19T06:57:42.354Z,12.63
2023-01-19T07:00:11.987Z,6.33
2023-01-19T07:02:43.380Z,4.57
2023-01-19T07:05:11.695Z,7.83
2023-01-19T07:07:39.909Z,11.70
2023-01-19T07:10:11.768Z,6.37
2023-01-19T07:12:39.631Z,5.73
2023-01-19T07:15:09.765Z,4.07
2023-01-19T07:17:37.586Z,7.47
2023-01-19T07:20:06.140Z,3.80
2023-01-19T07:22:33.893Z,9.47
2023-01-19T07:25:04.382Z,6.63
2023-01-19T07:27:33.642Z,3.97
2023-01-19T07:30:01.795Z,4.17
2023-01-19T07:32:29.850Z,3.53
2023-01-19T07:34:57.571Z,7.73
2023-01-19T07:37:25.356Z,4.37
2023-01-19T07:39:53.127Z,5.27
2023-01-19T07:42:20.882Z,2.73
2023-01-19T07:44:50.014Z,9.47
2023-01-19T07:47:17.923Z,2.63
2023-01-19T07:49:45.929Z,6.47
2023-01-19T07:52:13.766Z,9.33
2023-01-19T07:54:41.586Z,8.73
2023-01-19T07:57:09.319Z,5.87
2023-01-19T07:59:37.176Z,4.80
2023-01-19T08:02:06.699Z,6.30
2023-01-19T08:04:34.627Z,8.43
2023-01-19T08:07:03.755Z,4.63
2023-01-19T08:09:31.569Z,4.00
2023-01-19T08:11:59.327Z,3.67
2023-01-19T08:14:27.087Z,5.13
2023-01-19T08:16:54.812Z,7.07
2023-01-19T08:19:24.138Z,5.70
2023-01-19T08:21:51.988Z,2.03
2023-01-19T08:24:22.872Z,4.23
2023-01-19T08:26:50.960Z,4.50
2023-01-19T08:29:18.644Z,1.50
2023-01-19T08:31:46.757Z,5.70
2023-01-19T08:34:14.557Z,3.43
2023-01-19T08:36:43.729Z,3.90
2023-01-19T08:39:12.449Z,6.13
2023-01-19T08:41:40.184Z,4.10
2023-01-19T08:44:08.004Z,2.27
2023-01-19T08:46:36.018Z,2.80
2023-01-19T08:49:03.780Z,5.07
2023-01-19T08:51:31.558Z,4.27
2023-01-19T08:54:00.781Z,1.23
2023-01-19T08:56:28.538Z,4.30
2023-01-19T08:59:08.115Z,8.23
2023-01-19T09:01:37.693Z,1.47
2023-01-19T09:04:06.217Z,3.27
2023-01-19T09:06:34.175Z,2.90
2023-01-19T09:09:03.340Z,4.03
2023-01-19T09:11:31.889Z,2.87
2023-01-19T09:13:59.861Z,4.70
2023-01-19T09:16:29.321Z,2.83
2023-01-19T09:18:57.050Z,9.47
2023-01-19T09:21:24.894Z,3.03
2023-01-19T09:23:54.693Z,7.27
2023-01-19T09:26:27.078Z,3.63
2023-01-19T09:28:54.879Z,1.43
2023-01-19T09:31:22.780Z,2.83
2023-01-19T09:33:50.689Z,3.27
2023-01-19T09:36:21.330Z,1.83
2023-01-19T09:38:49.174Z,6.43
2023-01-19T09:41:22.311Z,4.90
2023-01-19T09:43:56.719Z,2.77
2023-01-19T09:46:31.716Z,1.07
2023-01-19T09:49:04.827Z,5.03
2023-01-19T09:51:35.905Z,0.90
2023-01-19T09:54:14.098Z,2.97
2023-01-19T09:56:42.409Z,3.83
2023-01-19T09:59:21.170Z,2.70
2023-01-19T10:02:07.727Z,5.63
2023-01-19T10:04:40.663Z,1.97
2023-01-19T10:07:14.901Z,3.83
2023-01-19T10:09:57.554Z,2.70
2023-01-19T10:12:42.353Z,2.43
2023-01-19T10:15:22.410Z,0.33
2023-01-19T10:18:02.175Z,3.47
2023-01-19T10:20:37.043Z,1.13
2023-01-19T10:23:16.366Z,1.60
2023-01-19T10:25:44.456Z,0.77
2023-01-19T10:28:14.610Z,3.33
2023-01-19T10:30:46.079Z,0.63
2023-01-19T10:33:15.396Z,3.47
2023-01-19T10:35:45.068Z,2.73
2023-01-19T10:38:15.602Z,1.00
2023-01-19T10:40:49.974Z,4.13
2023-01-19T10:43:37.996Z,2.37
2023-01-19T10:46:22.292Z,2.10
2023-01-19T10:48:52.125Z,1.30
2023-01-19T10:51:20.320Z,1.80
2023-01-19T10:53:58.169Z,1.87
2023-01-19T10:56:29.253Z,4.80
2023-01-19T10:58:57.410Z,3.17
2023-01-19T11:01:28.549Z,1.27
2023-01-19T11:04:00.083Z,2.23
2023-01-19T11:06:31.168Z,0.67
2023-01-19T11:09:16.796Z,1.07
2023-01-19T11:11:47.417Z,3.80
2023-01-19T11:14:18.417Z,4.17
2023-01-19T11:16:51.053Z,3.93
2023-01-19T11:19:23.142Z,1.53
2023-01-19T11:21:51.111Z,4.37
2023-01-19T11:24:19.332Z,1.40
2023-01-19T11:26:49.411Z,2.17
2023-01-19T11:29:20.988Z,0.47
2023-01-19T11:31:51.642Z,2.20
2023-01-19T11:34:32.645Z,5.67
2023-01-19T11:37:02.185Z,2.50
2023-01-19T11:39:31.688Z,4.37
2023-01-19T11:42:02.504Z,2.30
2023-01-19T11:44:33.675Z,2.90
2023-01-19T11:47:06.733Z,3.63
2023-01-19T11:49:44.875Z,0.90
2023-01-19T11:52:21.669Z,3.17
2023-01-19T11:54:58.364Z,1.80
2023-01-19T11:57:26.599Z,2.63
2023-01-19T11:59:55.376Z,3.50
2023-01-19T12:02:29.696Z,2.60
2023-01-19T12:05:02.644Z,3.20
2023-01-19T12:07:33.985Z,1.10
2023-01-19T12:10:14.054Z,2.43
2023-01-19T12:12:42.871Z,1.57
2023-01-19T12:15:22.311Z,1.00
2023-01-19T12:17:53.505Z,2.00
2023-01-19T12:20:28.131Z,4.10
2023-01-19T12:23:03.999Z,3.80
2023-01-19T12:25:43.124Z,3.47
2023-01-19T12:28:15.185Z,2.80
2023-01-19T12:30:43.154Z,5.53
2023-01-19T12:33:37.563Z,2.13
2023-01-19T12:36:10.992Z,2.20
2023-01-19T12:38:52.274Z,3.63
2023-01-19T12:41:27.009Z,3.20
2023-01-19T12:44:24.207Z,2.77
2023-01-19T12:46:58.039Z,2.43
2023-01-19T12:49:30.780Z,1.23
2023-01-19T12:52:15.235Z,1.90
2023-01-19T12:54:51.292Z,2.00
2023-01-19T12:57:23.433Z,3.20
2023-01-19T12:59:59.293Z,1.60
2023-01-19T13:02:52.342Z,0.90
2023-01-19T13:05:47.965Z,3.97
2023-01-19T13:08:17.814Z,2.87
2023-01-19T13:11:19.761Z,1.10
2023-01-19T13:14:29.762Z,1.83
2023-01-19T13:17:03.315Z,1.80
2023-01-19T13:19:43.900Z,2.23
2023-01-19T13:23:03.574Z,2.43
2023-01-19T13:25:35.812Z,2.10
2023-01-19T13:28:11.998Z,1.00
2023-01-19T13:30:52.257Z,2.47
2023-01-19T13:33:24.064Z,1.23
2023-01-19T13:35:58.612Z,4.77
2023-01-19T13:38:28.431Z,1.83
2023-01-19T13:41:00.894Z,1.80
2023-01-19T13:43:33.429Z,4.13
2023-01-19T13:46:01.853Z,0.93
2023-01-19T13:48:30.017Z,0.87
2023-01-19T13:51:04.032Z,0.73
2023-01-19T13:53:32.454Z,2.60
2023-01-19T13:56:22.233Z,1.73
2023-01-19T13:59:07.003Z,1.07
2023-01-19T14:01:34.979Z,3.30
2023-01-19T14:04:02.980Z,3.93
2023-01-19T14:06:39.781Z,2.43
2023-01-19T14:09:17.869Z,4.03
2023-01-19T14:11:49.512Z,3.33
2023-01-19T14:14:27.503Z,3.10
2023-01-19T14:16:55.475Z,3.93
2023-01-19T14:19:23.597Z,2.20
2023-01-19T14:22:02.710Z,4.17
2023-01-19T14:24:33.020Z,1.13
2023-01-19T14:27:19.618Z,2.80
2023-01-19T14:29:50.564Z,0.80
2023-01-19T14:32:20.409Z,1.00
2023-01-19T14:34:51.138Z,1.80
2023-01-19T14:37:22.095Z,1.67
2023-01-19T14:39:52.208Z,1.27
2023-01-19T14:42:25.813Z,0.80
2023-01-19T14:44:56.093Z,2.70
2023-01-19T14:47:30.556Z,2.47
2023-01-19T14:50:02.513Z,3.77
2023-01-19T14:52:34.299Z,2.67
2023-01-19T14:55:06.641Z,5.50
2023-01-19T14:57:37.236Z,3.40
2023-01-19T15:00:17.253Z,3.77
2023-01-19T15:02:45.513Z,0.93
2023-01-19T15:05:13.514Z,3.20
2023-01-19T15:07:44.552Z,2.97
2023-01-19T15:10:18.256Z,1.17
2023-01-19T15:12:47.910Z,2.40
2023-01-19T15:15:18.871Z,2.73
2023-01-19T15:17:47.163Z,1.67
2023-01-19T15:20:17.518Z,1.17
2023-01-19T15:22:46.129Z,2.27
2023-01-19T15:25:15.968Z,1.07
2023-01-19T15:27:44.279Z,2.43
2023-01-19T15:30:19.177Z,1.47
2023-01-19T15:32:47.842Z,2.13
2023-01-19T15:35:17.676Z,4.00
2023-01-19T15:37:45.937Z,2.83
2023-01-19T15:40:14.321Z,1.53
2023-01-19T15:42:42.351Z,1.87
2023-01-19T15:45:35.121Z,5.33
2023-01-19T15:48:06.013Z,2.57
2023-01-19T15:50:34.658Z,1.50
2023-01-19T15:53:02.428Z,2.93
2023-01-19T15:55:30.342Z,3.00
2023-01-19T15:58:01.525Z,3.37
2023-01-19T16:00:32.087Z,7.03
2023-01-19T16:03:01.750Z,4.53
2023-01-19T16:05:41.783Z,3.87
2023-01-19T16:08:10.421Z,1.97
2023-01-19T16:10:38.271Z,3.70
2023-01-19T16:13:06.007Z,1.10
2023-01-19T16:15:37.292Z,2.37
2023-01-19T16:18:06.205Z,2.43
2023-01-19T16:20:34.036Z,1.80
2023-01-19T16:23:17.020Z,3.00
2023-01-19T16:25:45.088Z,2.73
2023-01-19T16:28:13.060Z,1.23
2023-01-19T16:30:42.333Z,1.17
2023-01-19T16:33:11.753Z,3.43
2023-01-19T16:35:39.673Z,2.30
2023-01-19T16:38:09.358Z,2.60
2023-01-19T16:40:37.301Z,2.10
2023-01-19T16:43:05.358Z,1.77
2023-01-19T16:45:33.223Z,3.27
2023-01-19T16:48:02.349Z,2.30
2023-01-19T16:50:30.366Z,2.40
2023-01-19T16:52:59.024Z,0.70
2023-01-19T16:55:26.862Z,2.07
2023-01-19T16:57:56.425Z,0.97
2023-01-19T17:00:24.562Z,0.50
2023-01-19T17:02:52.407Z,0.37
2023-01-19T17:05:36.725Z,4.07
2023-01-19T17:08:04.602Z,0.63
2023-01-19T17:10:32.442Z,0.77
2023-01-19T17:13:00.309Z,0.40
2023-01-19T17:15:28.170Z,1.63
2023-01-19T17:17:55.979Z,1.23
2023-01-19T17:20:23.755Z,1.10
2023-01-19T17:22:52.934Z,1.70
2023-01-19T17:25:20.656Z,1.27
2023-01-19T17:27:48.618Z,0.63
2023-01-19T17:30:17.133Z,0.90
2023-01-19T17:32:45.077Z,0.87
2023-01-19T17:35:12.870Z,1.23
2023-01-19T17:37:40.618Z,1.27
2023-01-19T17:40:11.735Z,0.83
2023-01-19T17:42:41.320Z,2.23
2023-01-19T17:45:10.849Z,1.53
2023-01-19T17:47:39.039Z,1.97
2023-01-19T17:50:07.293Z,0.30
2023-01-19T17:52:35.162Z,0.93
2023-01-19T17:55:02.976Z,1.77
2023-01-19T17:57:32.268Z,1.00
2023-01-19T17:59:59.993Z,1.57
2023-01-19T18:02:27.852Z,1.27
2023-01-19T18:04:56.321Z,1.17
2023-01-19T18:07:24.151Z,1.97
2023-01-19T18:09:55.163Z,1.63
2023-01-19T18:12:23.322Z,5.50
2023-01-19T18:14:52.494Z,6.07
2023-01-19T18:17:20.346Z,6.80
2023-01-19T18:19:49.061Z,3.00
2023-01-19T18:22:16.959Z,1.70
2023-01-19T18:24:45.686Z,1.67
2023-01-19T18:27:13.444Z,3.60
2023-01-19T18:29:41.379Z,2.63
2023-01-19T18:32:10.649Z,3.63
2023-01-19T18:34:38.918Z,1.27
2023-01-19T18:37:06.612Z,3.60
2023-01-19T18:39:34.428Z,2.00
2023-01-19T18:42:02.238Z,1.27
2023-01-19T18:44:30.067Z,0.80
2023-01-19T18:46:58.075Z,3.03
2023-01-19T18:49:27.187Z,1.97
2023-01-19T18:51:56.084Z,2.50
2023-01-19T18:54:23.892Z,2.77
2023-01-19T18:56:51.728Z,1.40
2023-01-19T18:59:19.512Z,2.07
2023-01-19T19:01:47.490Z,3.63
2023-01-19T19:04:15.313Z,2.23
2023-01-19T19:06:44.512Z,2.60
2023-01-19T19:09:12.250Z,3.00
2023-01-19T19:11:40.148Z,2.73
2023-01-19T19:14:07.898Z,3.07
2023-01-19T19:16:38.101Z,1.77
2023-01-19T19:19:08.260Z,3.50
2023-01-19T19:21:35.973Z,3.93
2023-01-19T19:24:05.236Z,3.70
2023-01-19T19:26:32.938Z,3.63
2023-01-19T19:29:01.370Z,5.57
2023-01-19T19:31:30.277Z,2.33
2023-01-19T19:33:59.646Z,2.17
2023-01-19T19:36:29.449Z,2.07
2023-01-19T19:38:57.286Z,2.53
2023-01-19T19:41:28.143Z,1.97
2023-01-19T19:43:56.527Z,3.03
2023-01-19T19:46:25.091Z,2.87
2023-01-19T19:48:53.777Z,4.67
2023-01-19T19:51:23.890Z,3.93
2023-01-19T19:53:53.064Z,2.83
2023-01-19T19:56:22.459Z,4.13
2023-01-19T19:58:53.076Z,1.90
2023-01-19T20:01:25.933Z,2.00
2023-01-19T20:03:54.926Z,1.73
2023-01-19T20:06:25.227Z,4.60
2023-01-19T20:08:54.605Z,2.23
2023-01-19T20:11:24.954Z,2.93
2023-01-19T20:13:54.698Z,4.10
2023-01-19T20:16:24.264Z,1.77
2023-01-19T20:18:54.396Z,3.93
2023-01-19T20:21:23.799Z,2.13
2023-01-19T20:23:53.051Z,2.57
2023-01-19T20:26:23.212Z,2.50
2023-01-19T20:28:51.039Z,2.40
2023-01-19T20:31:24.052Z,2.13
2023-01-19T20:33:53.071Z,2.77
2023-01-19T20:36:24.368Z,8.20
2023-01-19T20:38:52.968Z,2.67
2023-01-19T20:41:21.881Z,2.23
2023-01-19T20:43:50.116Z,2.07
2023-01-19T20:46:18.353Z,1.70
2023-01-19T20:48:50.881Z,2.73
2023-01-19T20:51:20.256Z,2.33
2023-01-19T20:53:49.200Z,2.13
2023-01-19T20:56:17.435Z,5.40
2023-01-19T20:58:45.277Z,2.57
2023-01-19T21:01:14.512Z,2.97
2023-01-19T21:03:42.725Z,1.43
2023-01-19T21:06:13.075Z,2.80
2023-01-19T21:08:41.160Z,9.93
2023-01-19T21:11:09.755Z,3.27
2023-01-19T21:13:37.987Z,2.00
2023-01-19T21:16:06.269Z,1.63
2023-01-19T21:18:34.370Z,3.40
2023-01-19T21:21:02.341Z,1.37
2023-01-19T21:23:31.526Z,1.17
2023-01-19T21:26:01.268Z,3.93
2023-01-19T21:28:29.383Z,2.53
2023-01-19T21:30:57.511Z,1.63
2023-01-19T21:33:25.446Z,2.40
2023-01-19T21:35:53.692Z,0.57
2023-01-19T21:38:22.059Z,1.70
2023-01-19T21:40:51.296Z,0.70
2023-01-19T21:43:20.135Z,0.50
2023-01-19T21:45:49.800Z,1.93
2023-01-19T21:48:18.432Z,3.77
2023-01-19T21:50:46.196Z,1.37
2023-01-19T21:53:13.976Z,0.60
2023-01-19T21:55:45.851Z,3.97
2023-01-19T21:58:15.042Z,1.67
2023-01-19T22:00:42.854Z,0.50
2023-01-19T22:03:10.721Z,2.17
2023-01-19T22:05:38.553Z,1.60
2023-01-19T22:08:07.009Z,0.70
2023-01-19T22:10:36.816Z,2.50
2023-01-19T22:13:06.740Z,0.80
2023-01-19T22:15:36.379Z,0.57
2023-01-19T22:18:04.336Z,0.90
2023-01-19T22:20:32.125Z,2.57
2023-01-19T22:22:59.939Z,1.33
2023-01-19T22:25:28.696Z,2.50
2023-01-19T22:27:58.676Z,1.40
2023-01-19T22:30:26.674Z,2.07
2023-01-19T22:32:55.935Z,1.50
2023-01-19T22:35:23.733Z,1.23
2023-01-19T22:37:51.611Z,2.73
2023-01-19T22:40:20.063Z,2.70
2023-01-19T22:42:48.139Z,2.23
2023-01-19T22:45:16.202Z,5.07
2023-01-19T22:47:44.131Z,5.47
2023-01-19T22:50:13.375Z,4.10
2023-01-19T22:52:41.514Z,5.80
2023-01-19T22:55:10.248Z,7.50
2023-01-19T22:57:38.343Z,6.27
2023-01-19T23:00:08.811Z,7.70
2023-01-19T23:02:36.820Z,10.20
2023-01-19T23:05:05.057Z,9.90
2023-01-19T23:07:34.544Z,10.70
2023-01-19T23:10:02.350Z,9.53
2023-01-19T23:12:30.123Z,9.37
2023-01-19T23:14:57.862Z,11.50
2023-01-19T23:17:25.659Z,9.57
2023-01-19T23:19:53.421Z,11.20
2023-01-19T23:22:21.194Z,10.07
2023-01-19T23:24:50.419Z,10.57
2023-01-19T23:27:18.109Z,12.67
2023-01-19T23:29:46.216Z,11.30
2023-01-19T23:32:13.936Z,11.93
2023-01-19T23:34:41.884Z,14.50
2023-01-19T23:37:09.652Z,13.13
2023-01-19T23:39:37.430Z,13.70
2023-01-19T23:42:08.181Z,10.70
2023-01-19T23:44:36.127Z,15.17
2023-01-19T23:47:03.976Z,15.90
2023-01-19T23:49:31.731Z,14.27
2023-01-19T23:51:59.559Z,14.03
2023-01-19T23:54:27.347Z,15.63
2023-01-19T23:56:55.146Z,13.80
2023-01-19T23:59:24.298Z,13.80
